createdAt,value
2018-03-20T00:01:59.287Z,8.30
2018-03-20T00:04:25.385Z,10.40
2018-03-20T00:06:51.394Z,9.20
2018-03-20T00:09:17.349Z,8.73
2018-03-20T00:11:43.410Z,8.00
2018-03-20T00:14:09.374Z,10.00
2018-03-20T00:16:35.502Z,8.20
2018-03-20T00:19:01.464Z,8.40
2018-03-20T00:21:27.452Z,7.83
2018-03-20T00:23:54.193Z,8.13
2018-03-20T00:26:20.265Z,8.03
2018-03-20T00:28:46.304Z,7.70
2018-03-20T00:31:12.330Z,7.60
2018-03-20T00:33:38.289Z,7.10
2018-03-20T00:36:04.242Z,9.37
2018-03-20T00:38:31.046Z,8.57
2018-03-20T00:40:57.789Z,10.37
2018-03-20T00:43:24.621Z,11.57
2018-03-20T00:45:50.584Z,8.60
2018-03-20T00:48:17.324Z,9.67
2018-03-20T00:50:43.368Z,10.10
2018-03-20T00:53:10.100Z,8.93
2018-03-20T00:55:36.068Z,9.83
2018-03-20T00:58:02.803Z,9.77
2018-03-20T01:00:28.796Z,9.53
2018-03-20T01:02:54.831Z,9.80
2018-03-20T01:05:20.912Z,10.73
2018-03-20T01:07:46.984Z,9.30
2018-03-20T01:10:13.701Z,9.13
2018-03-20T01:12:39.676Z,10.03
2018-03-20T01:15:05.687Z,8.93
2018-03-20T01:17:31.695Z,8.30
2018-03-20T01:19:58.619Z,8.80
2018-03-20T01:22:24.712Z,8.10
2018-03-20T01:24:51.441Z,10.83
2018-03-20T01:27:17.459Z,9.43
2018-03-20T01:29:43.459Z,8.80
2018-03-20T01:32:10.181Z,8.93
2018-03-20T01:34:36.185Z,9.57
2018-03-20T01:37:02.147Z,9.70
2018-03-20T01:39:28.176Z,7.53
2018-03-20T01:41:54.175Z,9.00
2018-03-20T01:44:20.126Z,7.87
2018-03-20T01:46:46.162Z,9.53
2018-03-20T01:49:18.955Z,8.87
2018-03-20T01:51:45.009Z,7.50
2018-03-20T01:54:11.010Z,7.77
2018-03-20T01:56:37.691Z,8.27
2018-03-20T01:59:03.673Z,8.73
2018-03-20T02:01:29.707Z,7.03
2018-03-20T02:03:56.505Z,9.23
2018-03-20T02:06:22.470Z,8.93
2018-03-20T02:08:48.443Z,9.60
2018-03-20T02:11:21.329Z,8.73
2018-03-20T02:13:48.784Z,9.00
2018-03-20T02:16:14.732Z,9.33
2018-03-20T02:18:40.684Z,8.90
2018-03-20T02:21:06.652Z,8.77
2018-03-20T02:23:32.644Z,8.17
2018-03-20T02:25:58.708Z,9.90
2018-03-20T02:28:24.728Z,9.97
2018-03-20T02:30:51.465Z,8.83
2018-03-20T02:33:17.486Z,10.10
2018-03-20T02:35:43.453Z,9.07
2018-03-20T02:38:09.439Z,8.17
2018-03-20T02:40:35.423Z,7.77
2018-03-20T02:43:01.437Z,10.37
2018-03-20T02:45:27.461Z,9.90
2018-03-20T02:47:53.420Z,8.07
2018-03-20T02:50:19.464Z,8.97
2018-03-20T02:52:45.456Z,10.23
2018-03-20T02:55:11.489Z,9.97
2018-03-20T02:57:37.460Z,9.70
2018-03-20T03:00:03.461Z,9.40
2018-03-20T03:02:29.464Z,9.60
2018-03-20T03:04:56.304Z,9.33
2018-03-20T03:07:22.269Z,8.00
2018-03-20T03:09:48.984Z,9.27
2018-03-20T03:12:15.023Z,10.30
2018-03-20T03:14:41.004Z,10.23
2018-03-20T03:17:06.976Z,10.10
2018-03-20T03:19:32.978Z,9.93
2018-03-20T03:21:58.980Z,7.77
2018-03-20T03:24:25.018Z,10.27
2018-03-20T03:26:51.011Z,9.17
2018-03-20T03:29:16.976Z,9.97
2018-03-20T03:31:42.964Z,10.57
2018-03-20T03:34:08.936Z,9.00
2018-03-20T03:36:34.932Z,9.33
2018-03-20T03:39:00.997Z,9.40
2018-03-20T03:41:27.034Z,9.30
2018-03-20T03:43:53.020Z,10.70
2018-03-20T03:46:19.728Z,9.27
2018-03-20T03:48:45.713Z,9.17
2018-03-20T03:51:12.417Z,9.70
2018-03-20T03:53:38.412Z,9.73
2018-03-20T03:56:05.118Z,9.40
2018-03-20T03:58:31.068Z,10.57
2018-03-20T04:00:57.084Z,9.83
2018-03-20T04:03:23.057Z,10.23
2018-03-20T04:05:49.811Z,10.63
2018-03-20T04:08:16.565Z,11.00
2018-03-20T04:10:43.289Z,9.93
2018-03-20T04:13:09.275Z,9.43
2018-03-20T04:15:35.276Z,10.57
2018-03-20T04:18:01.989Z,10.80
2018-03-20T04:20:28.068Z,9.30
2018-03-20T04:22:54.082Z,9.80
2018-03-20T04:25:21.564Z,9.90
2018-03-20T04:27:47.552Z,10.50
2018-03-20T04:30:13.548Z,10.50
2018-03-20T04:32:40.250Z,11.03
2018-03-20T04:35:06.221Z,24.90
2018-03-20T04:37:32.221Z,16.70
2018-03-20T04:39:58.258Z,13.50
2018-03-20T04:42:24.282Z,14.20
2018-03-20T04:44:50.248Z,12.20
2018-03-20T04:47:16.229Z,16.60
2018-03-20T04:49:42.937Z,14.67
2018-03-20T04:52:08.920Z,24.70
2018-03-20T04:54:35.668Z,31.53
2018-03-20T04:57:01.639Z,22.90
2018-03-20T04:59:27.709Z,22.37
2018-03-20T05:01:53.662Z,37.03
2018-03-20T05:04:19.652Z,25.17
2018-03-20T05:06:45.635Z,16.10
2018-03-20T05:09:11.629Z,11.50
2018-03-20T05:11:37.588Z,10.13
2018-03-20T05:14:03.577Z,14.67
2018-03-20T05:16:30.347Z,11.30
2018-03-20T05:19:01.336Z,12.60
2018-03-20T05:21:29.359Z,11.63
2018-03-20T05:23:59.231Z,10.90
2018-03-20T05:26:25.244Z,11.67
2018-03-20T05:28:51.228Z,10.53
2018-03-20T05:31:17.244Z,10.77
2018-03-20T05:33:43.216Z,10.10
2018-03-20T05:36:09.217Z,11.10
2018-03-20T05:38:35.180Z,10.73
2018-03-20T05:41:01.184Z,12.33
2018-03-20T05:43:27.194Z,11.67
2018-03-20T05:45:53.188Z,12.33
2018-03-20T05:51:16.608Z,11.20
2018-03-20T05:53:42.571Z,13.60
2018-03-20T05:56:08.582Z,11.30
2018-03-20T05:58:34.548Z,12.30
2018-03-20T06:01:00.598Z,14.87
2018-03-20T06:03:26.727Z,13.43
2018-03-20T06:05:52.684Z,12.70
2018-03-20T06:08:18.676Z,13.87
2018-03-20T06:10:45.377Z,13.30
2018-03-20T06:13:11.404Z,13.27
2018-03-20T06:15:37.392Z,16.10
2018-03-20T06:18:03.347Z,16.90
2018-03-20T06:20:30.128Z,15.07
2018-03-20T06:22:56.174Z,15.27
2018-03-20T06:25:22.172Z,14.50
2018-03-20T06:27:48.912Z,16.30
2018-03-20T06:30:14.936Z,17.17
2018-03-20T06:32:40.892Z,16.97
2018-03-20T06:35:07.618Z,15.67
2018-03-20T06:37:33.593Z,15.33
2018-03-20T06:40:00.431Z,14.47
2018-03-20T06:42:26.472Z,13.90
2018-03-20T06:44:53.196Z,14.60
2018-03-20T06:47:19.192Z,14.47
2018-03-20T06:49:45.188Z,15.10
2018-03-20T06:52:11.156Z,15.07
2018-03-20T06:54:37.149Z,17.03
2018-03-20T06:57:03.109Z,15.80
2018-03-20T06:59:29.932Z,13.70
2018-03-20T07:01:55.996Z,13.83
2018-03-20T07:04:22.736Z,15.53
2018-03-20T07:06:48.713Z,14.60
2018-03-20T07:09:14.704Z,16.20
2018-03-20T07:11:40.692Z,17.33
2018-03-20T07:14:06.632Z,15.73
2018-03-20T07:16:32.618Z,13.57
2018-03-20T07:18:58.614Z,15.00
2018-03-20T07:21:24.664Z,14.70
2018-03-20T07:23:50.657Z,14.20
2018-03-20T07:26:16.624Z,14.70
2018-03-20T07:28:42.680Z,14.70
2018-03-20T07:31:09.386Z,14.37
2018-03-20T07:33:35.417Z,15.80
2018-03-20T07:36:01.381Z,12.00
2018-03-20T07:38:27.526Z,13.57
2018-03-20T07:40:53.488Z,14.53
2018-03-20T07:43:19.456Z,12.43
2018-03-20T07:45:46.192Z,10.67
2018-03-20T07:48:12.145Z,11.03
2018-03-20T07:50:38.960Z,9.07
2018-03-20T07:53:04.917Z,11.63
2018-03-20T07:55:30.889Z,9.73
2018-03-20T07:57:57.645Z,11.53
2018-03-20T08:00:23.632Z,9.90
2018-03-20T08:02:49.613Z,10.47
2018-03-20T08:05:15.620Z,9.20
2018-03-20T08:07:41.564Z,10.47
2018-03-20T08:10:08.293Z,10.10
2018-03-20T08:12:34.249Z,11.27
2018-03-20T08:15:01.064Z,12.10
2018-03-20T08:17:27.190Z,10.00
2018-03-20T08:19:53.172Z,10.40
2018-03-20T08:22:19.169Z,9.97
2018-03-20T08:24:45.153Z,10.40
2018-03-20T08:27:11.841Z,9.70
2018-03-20T08:29:37.879Z,10.80
2018-03-20T08:32:03.876Z,8.70
2018-03-20T08:34:30.584Z,8.53
2018-03-20T08:36:56.595Z,9.10
2018-03-20T08:39:22.588Z,10.03
2018-03-20T08:41:48.535Z,9.57
2018-03-20T08:44:15.265Z,10.23
2018-03-20T08:46:41.234Z,10.77
2018-03-20T08:49:07.976Z,10.00
2018-03-20T08:51:34.105Z,9.40
2018-03-20T08:54:00.216Z,9.70
2018-03-20T08:56:26.260Z,9.90
2018-03-20T08:58:52.250Z,9.30
2018-03-20T09:01:18.248Z,10.93
2018-03-20T09:03:44.273Z,9.70
2018-03-20T09:06:10.277Z,9.93
2018-03-20T09:08:36.298Z,9.43
2018-03-20T09:11:02.429Z,9.40
2018-03-20T09:13:29.344Z,8.70
2018-03-20T09:15:55.399Z,8.80
2018-03-20T09:18:22.136Z,8.83
2018-03-20T09:20:48.142Z,8.33
2018-03-20T09:23:14.096Z,9.47
2018-03-20T09:25:40.087Z,8.53
2018-03-20T09:28:06.776Z,8.50
2018-03-20T09:30:32.760Z,8.40
2018-03-20T09:32:58.828Z,8.30
2018-03-20T09:35:24.900Z,9.47
2018-03-20T09:37:50.887Z,9.30
2018-03-20T09:40:16.853Z,8.00
2018-03-20T09:42:42.843Z,8.30
2018-03-20T09:45:09.529Z,8.23
2018-03-20T09:47:35.529Z,9.20
2018-03-20T09:50:01.476Z,8.90
2018-03-20T09:52:28.260Z,8.27
2018-03-20T09:54:55.048Z,8.67
2018-03-20T09:57:20.996Z,8.20
2018-03-20T09:59:46.980Z,8.20
2018-03-20T10:02:12.993Z,9.30
2018-03-20T10:04:39.777Z,8.03
2018-03-20T10:07:05.769Z,8.37
2018-03-20T10:09:31.720Z,7.87
2018-03-20T10:11:58.500Z,6.70
2018-03-20T10:14:24.482Z,8.60
2018-03-20T10:16:50.433Z,8.33
2018-03-20T10:19:16.417Z,7.00
2018-03-20T10:21:42.404Z,8.47
2018-03-20T10:24:09.124Z,7.60
2018-03-20T10:26:35.081Z,7.17
2018-03-20T10:29:01.227Z,7.93
2018-03-20T10:31:27.250Z,7.73
2018-03-20T10:33:53.206Z,7.60
2018-03-20T10:36:19.945Z,8.37
2018-03-20T10:38:45.916Z,7.20
2018-03-20T10:41:11.892Z,6.40
2018-03-20T10:43:37.838Z,6.40
2018-03-20T10:46:03.836Z,6.30
2018-03-20T10:48:29.894Z,6.57
2018-03-20T10:50:55.936Z,5.97
2018-03-20T10:53:21.931Z,6.50
2018-03-20T10:55:48.680Z,7.20
2018-03-20T10:58:15.380Z,7.10
2018-03-20T11:00:47.309Z,9.13
2018-03-20T11:03:14.064Z,8.60
2018-03-20T11:05:40.759Z,8.40
2018-03-20T11:08:06.722Z,7.30
2018-03-20T11:10:32.716Z,8.07
2018-03-20T11:12:58.696Z,7.97
2018-03-20T11:15:24.701Z,7.20
2018-03-20T11:17:50.652Z,8.83
2018-03-20T11:20:16.652Z,8.43
2018-03-20T11:22:42.645Z,7.90
2018-03-20T11:25:09.342Z,7.83
2018-03-20T11:27:35.296Z,8.93
2018-03-20T11:30:01.349Z,7.30
2018-03-20T11:32:27.358Z,7.70
2018-03-20T11:34:53.392Z,7.63
2018-03-20T11:37:19.368Z,6.47
2018-03-20T11:39:45.350Z,6.80
2018-03-20T11:42:11.351Z,6.47
2018-03-20T11:44:37.344Z,7.13
2018-03-20T11:47:03.293Z,7.47
2018-03-20T11:49:29.351Z,8.13
2018-03-20T11:51:55.340Z,7.23
2018-03-20T11:54:21.332Z,7.37
2018-03-20T11:56:47.351Z,7.60
2018-03-20T11:59:13.310Z,7.20
2018-03-20T12:01:39.272Z,7.27
2018-03-20T12:04:05.264Z,8.63
2018-03-20T12:06:31.306Z,7.80
2018-03-20T12:09:09.828Z,8.07
2018-03-20T12:11:35.785Z,8.93
2018-03-20T12:14:01.816Z,8.07
2018-03-20T12:16:27.998Z,7.87
2018-03-20T12:18:53.991Z,8.47
2018-03-20T12:21:19.977Z,8.73
2018-03-20T12:23:45.968Z,9.47
2018-03-20T12:26:11.956Z,8.80
2018-03-20T12:28:37.930Z,8.80
2018-03-20T12:31:03.924Z,9.70
2018-03-20T12:33:30.001Z,8.50
2018-03-20T12:35:56.030Z,8.63
2018-03-20T12:38:22.032Z,9.20
2018-03-20T12:40:47.985Z,8.83
2018-03-20T12:43:14.001Z,8.80
2018-03-20T12:45:39.969Z,9.90
2018-03-20T12:48:05.944Z,9.03
2018-03-20T12:50:32.668Z,8.87
2018-03-20T12:52:58.658Z,8.70
2018-03-20T12:55:24.703Z,9.30
2018-03-20T12:57:50.680Z,9.33
2018-03-20T13:00:16.663Z,10.00
2018-03-20T13:02:42.612Z,8.60
2018-03-20T13:05:08.611Z,9.53
2018-03-20T13:07:35.296Z,9.80
2018-03-20T13:10:01.333Z,8.60
2018-03-20T13:12:27.380Z,10.60
2018-03-20T13:14:53.400Z,9.53
2018-03-20T13:17:19.364Z,9.90
2018-03-20T13:19:45.321Z,10.27
2018-03-20T13:22:11.304Z,9.53
2018-03-20T13:24:37.272Z,9.30
2018-03-20T13:27:03.249Z,9.40
2018-03-20T13:29:29.300Z,9.80
2018-03-20T13:31:55.309Z,9.97
2018-03-20T13:34:21.308Z,10.53
2018-03-20T13:36:47.264Z,8.97
2018-03-20T13:39:13.264Z,9.10
2018-03-20T13:41:39.228Z,9.47
2018-03-20T13:44:05.240Z,9.90
2018-03-20T13:46:31.416Z,10.13
2018-03-20T13:48:57.413Z,10.47
2018-03-20T13:51:23.429Z,10.00
2018-03-20T13:53:50.116Z,10.40
2018-03-20T13:56:16.084Z,9.80
2018-03-20T13:58:42.249Z,11.30
2018-03-20T14:01:08.184Z,10.60
2018-03-20T14:03:34.880Z,9.50
2018-03-20T14:06:00.901Z,12.40
2018-03-20T14:08:26.948Z,12.10
2018-03-20T14:10:53.740Z,12.63
2018-03-20T14:13:19.700Z,11.47
2018-03-20T14:15:46.433Z,13.03
2018-03-20T14:18:12.392Z,12.10
2018-03-20T14:20:39.186Z,11.37
2018-03-20T14:23:05.089Z,13.47
2018-03-20T14:25:31.781Z,14.40
2018-03-20T14:27:57.815Z,13.70
2018-03-20T14:30:23.804Z,17.50
2018-03-20T14:32:50.544Z,16.90
2018-03-20T14:35:16.501Z,17.43
2018-03-20T14:37:43.189Z,16.43
2018-03-20T14:40:09.164Z,18.20
2018-03-20T14:42:35.117Z,16.53
2018-03-20T14:45:01.856Z,16.00
2018-03-20T14:47:27.886Z,16.73
2018-03-20T14:49:54.676Z,18.97
2018-03-20T14:52:20.696Z,19.67
2018-03-20T14:54:47.380Z,18.00
2018-03-20T14:57:13.368Z,17.60
2018-03-20T14:59:39.400Z,18.90
2018-03-20T15:02:05.352Z,19.40
2018-03-20T15:04:32.058Z,19.00
2018-03-20T15:06:58.068Z,19.43
2018-03-20T15:09:24.032Z,19.70
2018-03-20T15:11:50.012Z,19.13
2018-03-20T15:14:15.967Z,21.47
2018-03-20T15:16:41.929Z,19.13
2018-03-20T15:19:07.925Z,19.43
2018-03-20T15:21:34.652Z,18.20
2018-03-20T15:24:00.653Z,19.10
2018-03-20T15:26:26.652Z,19.60
2018-03-20T15:28:53.356Z,19.00
2018-03-20T15:31:19.350Z,19.93
2018-03-20T15:33:46.040Z,18.63
2018-03-20T15:36:12.006Z,17.90
2018-03-20T15:38:37.989Z,19.20
2018-03-20T15:41:03.995Z,19.50
2018-03-20T15:43:30.689Z,19.37
2018-03-20T15:45:56.683Z,18.57
2018-03-20T15:48:23.381Z,19.10
2018-03-20T15:50:49.364Z,18.93
2018-03-20T15:53:15.325Z,19.03
2018-03-20T15:55:42.049Z,18.30
2018-03-20T15:58:08.009Z,20.80
2018-03-20T16:00:34.744Z,19.57
2018-03-20T16:03:00.806Z,20.80
2018-03-20T16:05:27.612Z,19.63
2018-03-20T16:07:53.615Z,20.67
2018-03-20T16:10:19.612Z,20.70
2018-03-20T16:12:45.560Z,21.27
2018-03-20T16:15:12.257Z,22.40
2018-03-20T16:17:38.301Z,23.17
2018-03-20T16:20:04.291Z,21.60
2018-03-20T16:22:31.049Z,21.80
2018-03-20T16:24:57.849Z,23.67
2018-03-20T16:27:23.828Z,22.70
2018-03-20T16:29:50.552Z,22.67
2018-03-20T16:32:16.496Z,24.90
2018-03-20T16:34:42.557Z,23.57
2018-03-20T16:37:09.192Z,23.90
2018-03-20T16:39:35.173Z,23.23
2018-03-20T16:42:01.118Z,25.30
2018-03-20T16:44:27.137Z,24.20
2018-03-20T16:46:53.203Z,23.63
2018-03-20T16:49:19.164Z,24.10
2018-03-20T16:51:45.138Z,21.97
2018-03-20T16:54:11.136Z,22.07
2018-03-20T16:56:37.087Z,23.60
2018-03-20T16:59:03.062Z,22.33
2018-03-20T17:01:29.057Z,23.27
2018-03-20T17:03:55.788Z,22.53
2018-03-20T17:06:21.768Z,24.40
2018-03-20T17:08:47.714Z,22.03
2018-03-20T17:11:13.661Z,21.40
2018-03-20T17:13:39.673Z,21.07
2018-03-20T17:16:06.356Z,21.33
2018-03-20T17:18:32.307Z,21.00
2018-03-20T17:20:58.352Z,21.50
2018-03-20T17:23:24.305Z,22.10
2018-03-20T17:25:50.296Z,22.57
2018-03-20T17:28:16.308Z,23.50
2018-03-20T17:30:42.316Z,19.63
2018-03-20T17:33:08.317Z,20.73
2018-03-20T17:35:36.136Z,20.50
2018-03-20T17:38:02.112Z,21.37
2018-03-20T17:40:28.087Z,20.63
2018-03-20T17:42:54.073Z,21.13
2018-03-20T17:45:20.020Z,22.93
2018-03-20T17:47:46.049Z,21.53
2018-03-20T17:50:11.998Z,21.50
2018-03-20T17:52:37.961Z,21.03
2018-03-20T17:55:04.012Z,22.93
2018-03-20T17:57:30.067Z,20.03
2018-03-20T17:59:56.840Z,22.20
2018-03-20T18:02:22.818Z,21.10
2018-03-20T18:04:48.801Z,20.90
2018-03-20T18:07:15.528Z,20.77
2018-03-20T18:09:41.480Z,22.90
2018-03-20T18:12:08.226Z,21.23
2018-03-20T18:14:34.172Z,23.17
2018-03-20T18:17:00.160Z,23.60
2018-03-20T18:19:26.197Z,21.57
2018-03-20T18:21:52.177Z,22.67
2018-03-20T18:24:18.867Z,19.90
2018-03-20T18:26:44.848Z,21.80
2018-03-20T18:29:10.802Z,23.27
2018-03-20T18:31:36.781Z,22.80
2018-03-20T18:34:02.756Z,21.97
2018-03-20T18:36:28.776Z,23.57
2018-03-20T18:38:54.796Z,24.03
2018-03-20T18:41:20.770Z,21.73
2018-03-20T18:43:46.748Z,22.40
2018-03-20T18:46:12.705Z,22.67
2018-03-20T18:48:38.698Z,22.07
2018-03-20T18:51:05.441Z,23.00
2018-03-20T18:53:31.477Z,23.60
2018-03-20T18:55:58.204Z,22.63
2018-03-20T18:58:24.185Z,24.27
2018-03-20T19:00:50.188Z,26.57
2018-03-20T19:03:16.200Z,24.80
2018-03-20T19:05:42.164Z,25.23
2018-03-20T19:08:08.144Z,24.00
2018-03-20T19:10:34.124Z,25.17
2018-03-20T19:13:00.170Z,23.10
2018-03-20T19:15:26.221Z,24.30
2018-03-20T19:17:52.903Z,24.70
2018-03-20T19:20:18.950Z,24.77
2018-03-20T19:22:45.600Z,27.10
2018-03-20T19:25:11.593Z,26.67
2018-03-20T19:27:37.592Z,33.23
2018-03-20T19:30:03.591Z,28.00
2018-03-20T19:32:29.596Z,28.20
2018-03-20T19:34:55.620Z,23.97
2018-03-20T19:37:21.604Z,25.17
2018-03-20T19:39:47.604Z,25.77
2018-03-20T19:42:13.552Z,25.77
2018-03-20T19:44:40.249Z,29.13
2018-03-20T19:47:06.233Z,26.90
2018-03-20T19:49:32.228Z,27.40
2018-03-20T19:51:58.357Z,27.90
2018-03-20T19:54:24.301Z,30.27
2018-03-20T19:56:50.296Z,28.40
2018-03-20T19:59:17.013Z,29.80
2018-03-20T20:01:42.963Z,27.83
2018-03-20T20:04:08.999Z,26.47
2018-03-20T20:06:34.948Z,23.80
2018-03-20T20:09:01.742Z,27.10
2018-03-20T20:11:27.795Z,23.53
2018-03-20T20:13:53.745Z,25.03
2018-03-20T20:16:20.465Z,25.00
2018-03-20T20:18:46.412Z,25.40
2018-03-20T20:21:12.405Z,24.80
2018-03-20T20:23:39.094Z,21.57
2018-03-20T20:26:05.081Z,19.87
2018-03-20T20:28:31.158Z,19.20
2018-03-20T20:30:57.236Z,22.33
2018-03-20T20:33:23.188Z,22.10
2018-03-20T20:35:49.140Z,19.63
2018-03-20T20:38:15.887Z,20.27
2018-03-20T20:40:41.844Z,17.90
2018-03-20T20:43:08.528Z,21.73
2018-03-20T20:45:34.513Z,21.47
2018-03-20T20:48:00.544Z,19.90
2018-03-20T20:50:26.630Z,19.83
2018-03-20T20:52:52.580Z,16.23
2018-03-20T20:55:18.573Z,16.83
2018-03-20T20:57:45.260Z,17.10
2018-03-20T21:00:11.204Z,16.77
2018-03-20T21:02:37.217Z,14.50
2018-03-20T21:05:03.168Z,13.03
2018-03-20T21:07:29.236Z,16.00
2018-03-20T21:09:55.257Z,11.50
2018-03-20T21:12:22.017Z,12.30
2018-03-20T21:14:48.024Z,10.67
2018-03-20T21:17:14.012Z,9.53
2018-03-20T21:19:39.949Z,10.73
2018-03-20T21:22:05.924Z,10.70
2018-03-20T21:24:31.988Z,11.37
2018-03-20T21:26:58.060Z,10.83
2018-03-20T21:29:24.799Z,9.13
2018-03-20T21:31:50.802Z,8.40
2018-03-20T21:34:16.792Z,8.20
2018-03-20T21:36:42.747Z,8.53
2018-03-20T21:39:08.756Z,7.23
2018-03-20T21:41:34.708Z,7.13
2018-03-20T21:44:01.493Z,6.40
2018-03-20T21:46:27.538Z,7.23
2018-03-20T21:48:53.493Z,6.30
2018-03-20T21:51:19.473Z,6.40
2018-03-20T21:53:46.169Z,5.37
2018-03-20T21:56:12.154Z,5.87
2018-03-20T21:58:38.877Z,5.50
2018-03-20T22:01:04.860Z,4.50
2018-03-20T22:03:30.920Z,4.80
2018-03-20T22:05:56.940Z,4.37
2018-03-20T22:08:22.944Z,4.73
2018-03-20T22:10:48.932Z,3.40
2018-03-20T22:13:14.901Z,4.13
2018-03-20T22:15:40.884Z,5.33
2018-03-20T22:18:06.836Z,3.87
2018-03-20T22:20:32.821Z,4.10
2018-03-20T22:22:58.813Z,3.80
2018-03-20T22:25:24.789Z,4.57
2018-03-20T22:27:50.769Z,3.70
2018-03-20T22:30:16.770Z,4.00
2018-03-20T22:32:43.515Z,3.80
2018-03-20T22:35:09.500Z,3.30
2018-03-20T22:37:35.472Z,3.57
2018-03-20T22:40:01.457Z,3.40
2018-03-20T22:42:27.497Z,2.80
2018-03-20T22:44:53.452Z,3.10
2018-03-20T22:47:19.405Z,2.90
2018-03-20T22:49:45.472Z,2.57
2018-03-20T22:52:11.424Z,3.20
2018-03-20T22:54:38.132Z,3.27
2018-03-20T22:57:04.153Z,3.70
2018-03-20T22:59:30.150Z,3.23
2018-03-20T23:01:56.916Z,2.73
2018-03-20T23:04:22.896Z,3.47
2018-03-20T23:06:48.880Z,2.70
2018-03-20T23:09:15.576Z,4.10
2018-03-20T23:11:41.582Z,3.20
2018-03-20T23:14:07.585Z,2.50
2018-03-20T23:16:34.289Z,2.77
2018-03-20T23:19:00.315Z,2.47
2018-03-20T23:21:26.415Z,2.80
2018-03-20T23:23:53.215Z,2.83
2018-03-20T23:26:19.200Z,2.90
2018-03-20T23:28:45.153Z,3.50
2018-03-20T23:31:11.902Z,2.97
2018-03-20T23:33:38.645Z,3.27
2018-03-20T23:36:04.588Z,2.70
2018-03-20T23:38:30.647Z,3.10
2018-03-20T23:40:56.677Z,3.47
2018-03-20T23:43:23.371Z,2.60
2018-03-20T23:45:49.357Z,2.70
2018-03-20T23:48:16.100Z,3.37
2018-03-20T23:50:42.056Z,3.00
2018-03-20T23:53:08.757Z,2.63
2018-03-20T23:55:34.733Z,2.70
2018-03-20T23:58:01.480Z,3.40
